Time;durP1;ratioP1;P1;durP2;ratioP2;P2;SDS_P1;SDS_P2;PMS_P1;PMS_P2;Temp;Humidity;BMP_temperature;BMP_pressure;BME280_temperature;BME280_humidity;BME280_pressure;Samples;Min_cycle;Max_cycle;Signal;HPM_P1;HPM_P2
2021/07/24 00:00:13;;;;;;;9.55;6.53;;;19.80;99.90;;;;;;2113786;28;20070;-67
2021/07/24 00:01:14;;;;;;;7.07;6.38;;;19.80;99.90;;;;;;2112629;28;20461;-67
2021/07/24 00:02:15;;;;;;;10.27;6.40;;;19.80;99.90;;;;;;2105843;28;20383;-67
2021/07/24 00:03:15;;;;;;;10.50;7.68;;;19.80;99.90;;;;;;2105468;28;20107;-67
2021/07/24 00:04:16;;;;;;;8.73;7.82;;;19.80;99.90;;;;;;2106263;28;20035;-67
2021/07/24 00:05:16;;;;;;;9.32;7.30;;;19.70;99.90;;;;;;2106013;28;20063;-67
2021/07/24 00:06:17;;;;;;;8.02;7.22;;;19.70;99.90;;;;;;2106223;28;20028;-67
2021/07/24 00:07:18;;;;;;;8.55;6.93;;;19.70;99.90;;;;;;2106133;28;20088;-67
2021/07/24 00:08:18;;;;;;;10.05;6.68;;;19.70;99.90;;;;;;2106271;28;20451;-67
2021/07/24 00:09:19;;;;;;;8.80;7.53;;;19.70;99.90;;;;;;2105353;28;20035;-67
2021/07/24 00:10:20;;;;;;;8.77;7.30;;;19.70;99.90;;;;;;2105735;28;20021;-67
2021/07/24 00:11:20;;;;;;;11.45;7.13;;;19.60;99.90;;;;;;2105823;28;20142;-67
2021/07/24 00:12:21;;;;;;;7.75;6.60;;;19.70;99.90;;;;;;2105751;28;20435;-67
2021/07/24 00:13:21;;;;;;;8.05;7.22;;;19.70;99.90;;;;;;2104708;28;20031;-67
2021/07/24 00:14:22;;;;;;;12.98;7.30;;;19.70;99.90;;;;;;2105445;28;20070;-67
2021/07/24 00:15:22;;;;;;;8.20;6.85;;;19.60;99.90;;;;;;2105812;28;20389;-67
2021/07/24 00:16:23;;;;;;;8.85;7.18;;;19.70;99.90;;;;;;2106047;28;20055;-67
2021/07/24 00:17:24;;;;;;;7.82;6.60;;;19.60;99.90;;;;;;2109459;28;20088;-67
2021/07/24 00:18:25;;;;;;;7.68;6.93;;;19.60;99.90;;;;;;2114433;28;20062;-67
2021/07/24 00:19:25;;;;;;;8.88;7.55;;;19.60;99.90;;;;;;2114662;28;20026;-67
2021/07/24 00:20:26;;;;;;;17.63;8.18;;;19.60;99.90;;;;;;2114239;28;20107;-67
2021/07/24 00:21:26;;;;;;;8.57;7.65;;;19.60;99.90;;;;;;2114660;28;20031;-67
2021/07/24 00:22:27;;;;;;;8.70;7.38;;;19.60;99.90;;;;;;2114060;28;20032;-67
2021/07/24 00:23:27;;;;;;;8.80;7.18;;;19.60;99.90;;;;;;2114196;28;20067;-67
2021/07/24 00:24:28;;;;;;;7.55;6.80;;;19.60;99.90;;;;;;2114049;28;20032;-67
2021/07/24 00:25:29;;;;;;;7.10;6.22;;;19.60;99.90;;;;;;2114446;28;20023;-67
2021/07/24 00:26:30;;;;;;;8.70;7.18;;;19.60;99.90;;;;;;2114127;28;20040;-67
2021/07/24 00:27:30;;;;;;;9.80;7.22;;;19.60;99.90;;;;;;2113336;28;20027;-67
2021/07/24 00:28:31;;;;;;;9.13;7.40;;;19.60;99.90;;;;;;2106012;28;20418;-67
2021/07/24 00:29:31;;;;;;;8.50;7.70;;;19.50;99.90;;;;;;2105530;28;20031;-67
2021/07/24 00:30:35;;;;;;;8.40;7.05;;;19.50;99.90;;;;;;2105067;28;20020;-67
2021/07/24 00:31:35;;;;;;;8.10;7.03;;;19.50;99.90;;;;;;2104787;28;20526;-67
2021/07/24 00:32:36;;;;;;;13.73;7.72;;;19.50;99.90;;;;;;2105316;28;20390;-68
2021/07/24 00:33:36;;;;;;;7.93;7.20;;;19.50;99.90;;;;;;2106051;28;20077;-68
2021/07/24 00:34:37;;;;;;;9.00;7.78;;;19.50;99.90;;;;;;2105963;28;20039;-67
2021/07/24 00:35:38;;;;;;;8.82;7.22;;;19.50;99.90;;;;;;2106046;28;20028;-67
2021/07/24 00:36:38;;;;;;;7.70;7.00;;;19.50;99.90;;;;;;2105598;28;20110;-68
2021/07/24 00:37:39;;;;;;;8.48;7.53;;;19.40;99.90;;;;;;2106058;28;20020;-68
2021/07/24 00:38:41;;;;;;;9.15;8.02;;;19.40;99.90;;;;;;2105620;28;20028;-67
2021/07/24 00:39:41;;;;;;;10.32;7.50;;;19.50;99.90;;;;;;2106067;28;20735;-68
2021/07/24 00:40:44;;;;;;;8.95;7.32;;;19.50;99.90;;;;;;2105939;28;20482;-68
2021/07/24 00:42:03;;;;;;;9.85;8.00;;;19.40;99.90;;;;;;2105799;28;20032;-68
2021/07/24 00:43:05;;;;;;;8.20;7.35;;;19.40;99.90;;;;;;2106643;28;20028;-67
2021/07/24 00:44:07;;;;;;;9.63;7.63;;;19.40;99.90;;;;;;2114384;28;20040;-68
2021/07/24 00:45:08;;;;;;;9.55;7.45;;;19.40;99.90;;;;;;2114136;28;20027;-68
2021/07/24 00:46:09;;;;;;;8.40;7.45;;;19.30;99.90;;;;;;2114251;28;20383;-68
2021/07/24 00:47:11;;;;;;;10.80;7.30;;;19.40;99.90;;;;;;2114176;28;20031;-68
2021/07/24 00:48:17;;;;;;;8.93;8.00;;;19.40;99.90;;;;;;2114348;28;20023;-67
2021/07/24 00:49:21;;;;;;;8.80;7.78;;;19.30;99.90;;;;;;2114282;28;20026;-68
2021/07/24 00:50:22;;;;;;;11.35;8.00;;;19.30;99.90;;;;;;2114516;28;20391;-67
2021/07/24 00:51:31;;;;;;;9.10;8.07;;;19.30;99.90;;;;;;2113745;28;20078;-68
2021/07/24 00:52:32;;;;;;;7.50;6.80;;;19.30;99.90;;;;;;2114338;28;20040;-68
2021/07/24 00:53:35;;;;;;;8.27;7.32;;;19.30;99.90;;;;;;2113797;28;20053;-68
2021/07/24 00:54:38;;;;;;;14.27;7.70;;;19.30;99.90;;;;;;2114126;28;20036;-68
2021/07/24 00:55:39;;;;;;;9.35;7.43;;;19.30;99.90;;;;;;2113925;28;20356;-68
2021/07/24 00:56:40;;;;;;;9.38;7.63;;;19.30;99.90;;;;;;2105638;28;20101;-68
2021/07/24 00:57:41;;;;;;;8.70;7.88;;;19.30;99.90;;;;;;2107352;28;20415;-68
2021/07/24 00:58:42;;;;;;;8.55;7.65;;;19.30;99.90;;;;;;2114446;28;20076;-67
2021/07/24 00:59:43;;;;;;;10.27;7.68;;;19.30;99.90;;;;;;2114149;28;20035;-67
2021/07/24 01:00:43;;;;;;;8.65;7.55;;;19.20;99.90;;;;;;2114316;28;20538;-68
2021/07/24 01:01:46;;;;;;;9.50;7.75;;;19.20;99.90;;;;;;2108554;28;20448;-68
2021/07/24 01:02:46;;;;;;;10.80;8.05;;;19.20;99.90;;;;;;2105137;28;20051;-68
2021/07/24 01:03:47;;;;;;;10.43;7.80;;;19.20;99.90;;;;;;2105703;28;20034;-68
2021/07/24 01:04:48;;;;;;;13.77;8.20;;;19.20;99.90;;;;;;2105637;28;20039;-68
2021/07/24 01:05:51;;;;;;;9.80;8.02;;;19.20;99.90;;;;;;2105675;28;20032;-68
2021/07/24 01:06:52;;;;;;;11.55;8.40;;;19.20;99.90;;;;;;2105829;28;20043;-68
2021/07/24 01:07:52;;;;;;;8.77;7.90;;;19.20;99.90;;;;;;2107286;28;20067;-68
2021/07/24 01:08:53;;;;;;;10.02;7.80;;;19.20;99.90;;;;;;2107625;28;20062;-68
2021/07/24 01:09:53;;;;;;;9.85;7.72;;;19.20;99.90;;;;;;2107614;28;20127;-67
2021/07/24 01:10:55;;;;;;;8.85;8.02;;;19.20;99.90;;;;;;2107541;28;20016;-68
2021/07/24 01:11:56;;;;;;;8.68;7.78;;;19.20;99.90;;;;;;2098712;28;20165;-68
2021/07/24 01:12:57;;;;;;;11.40;8.55;;;19.10;99.90;;;;;;2105842;28;20331;-68
2021/07/24 01:13:57;;;;;;;11.52;9.13;;;19.10;99.90;;;;;;2107719;28;20078;-68
2021/07/24 01:14:58;;;;;;;10.52;9.02;;;19.10;99.90;;;;;;2107623;28;20017;-67
2021/07/24 01:15:59;;;;;;;9.93;8.93;;;19.10;99.90;;;;;;2107099;28;20052;-67
2021/07/24 01:17:00;;;;;;;12.93;9.10;;;19.10;99.90;;;;;;2107411;28;20020;-68
2021/07/24 01:18:01;;;;;;;10.38;9.25;;;19.10;99.90;;;;;;2107531;28;20467;-68
2021/07/24 01:19:01;;;;;;;9.68;8.70;;;19.10;99.90;;;;;;2107568;28;20801;-68
2021/07/24 01:20:03;;;;;;;15.48;9.27;;;19.10;99.90;;;;;;2107410;28;20024;-68
2021/07/24 01:21:09;;;;;;;14.15;9.30;;;19.10;99.90;;;;;;2107847;28;20028;-68
2021/07/24 01:22:10;;;;;;;14.95;8.65;;;19.10;99.90;;;;;;2106988;28;20048;-68
2021/07/24 01:23:12;;;;;;;10.68;8.88;;;19.10;99.90;;;;;;2107333;28;20032;-68
2021/07/24 01:24:12;;;;;;;14.15;8.60;;;19.10;99.90;;;;;;2107415;28;20478;-68
2021/07/24 01:25:13;;;;;;;9.70;8.13;;;19.00;99.90;;;;;;2107349;28;20048;-68
2021/07/24 01:26:21;;;;;;;8.82;7.90;;;19.10;99.90;;;;;;2106938;28;20143;-67
2021/07/24 01:27:21;;;;;;;9.32;8.32;;;19.10;99.90;;;;;;2112062;28;20087;-68
2021/07/24 01:28:24;;;;;;;9.75;8.27;;;19.00;99.90;;;;;;2115596;28;20023;-68
2021/07/24 01:29:25;;;;;;;9.85;8.95;;;19.00;99.90;;;;;;2115917;28;20028;-68
2021/07/24 01:30:26;;;;;;;13.90;9.35;;;19.00;99.90;;;;;;2115727;28;20456;-68
2021/07/24 01:31:26;;;;;;;10.13;8.13;;;19.00;99.90;;;;;;2113984;27;20041;-68
2021/07/24 01:32:27;;;;;;;9.10;8.20;;;19.00;99.90;;;;;;2107070;28;20040;-68
2021/07/24 01:33:28;;;;;;;9.52;8.50;;;19.00;99.90;;;;;;2107046;28;20070;-68
2021/07/24 01:34:28;;;;;;;8.75;7.85;;;19.00;99.90;;;;;;2107402;28;20028;-68
2021/07/24 01:35:29;;;;;;;8.80;7.82;;;19.00;99.90;;;;;;2107301;28;20020;-67
2021/07/24 01:36:29;;;;;;;11.73;9.05;;;19.00;99.90;;;;;;2107281;28;20054;-68
2021/07/24 01:37:30;;;;;;;13.35;8.35;;;18.90;99.90;;;;;;2107073;28;20028;-68
2021/07/24 01:38:36;;;;;;;13.85;8.63;;;19.00;99.90;;;;;;2107341;28;20024;-68
2021/07/24 01:39:37;;;;;;;9.32;8.35;;;19.00;99.90;;;;;;2107226;28;20074;-68
2021/07/24 01:40:38;;;;;;;15.73;8.73;;;18.90;99.90;;;;;;2111595;28;20023;-68
2021/07/24 01:41:43;;;;;;;10.43;7.55;;;19.00;99.90;;;;;;2112363;28;20051;-68
2021/07/24 01:42:44;;;;;;;12.10;8.93;;;19.00;99.90;;;;;;2098560;28;20055;-68
2021/07/24 01:43:44;;;;;;;9.88;8.30;;;18.90;99.90;;;;;;2104832;28;20103;-68
2021/07/24 01:44:45;;;;;;;9.35;7.97;;;18.90;99.90;;;;;;2107227;28;20031;-68
2021/07/24 01:45:46;;;;;;;9.57;8.52;;;18.90;99.90;;;;;;2107026;28;20417;-68
2021/07/24 01:46:46;;;;;;;8.95;8.05;;;18.90;99.90;;;;;;2107053;28;20069;-68
2021/07/24 01:47:48;;;;;;;9.32;8.30;;;18.90;99.90;;;;;;2106925;28;20034;-68
2021/07/24 01:52:51;;;;;;;9.95;8.18;;;18.80;99.90;;;;;;2115646;28;20379;-68
2021/07/24 01:53:57;;;;;;;11.75;8.32;;;18.80;99.90;;;;;;2105793;28;20032;-68
2021/07/24 01:55:03;;;;;;;9.15;8.20;;;18.80;99.90;;;;;;2107930;28;20024;-67
2021/07/24 01:56:06;;;;;;;10.45;8.48;;;18.70;99.90;;;;;;2109477;28;20073;-68
2021/07/24 01:57:09;;;;;;;10.05;8.23;;;18.80;99.90;;;;;;2098524;28;20411;-68
2021/07/24 01:58:16;;;;;;;9.18;8.27;;;18.80;99.90;;;;;;2102768;28;20020;-68
2021/07/24 01:59:21;;;;;;;10.02;7.82;;;18.70;99.90;;;;;;2107051;28;20494;-68
2021/07/24 02:00:22;;;;;;;12.73;8.80;;;18.70;99.90;;;;;;2107011;28;20039;-68
2021/07/24 02:01:26;;;;;;;10.00;7.82;;;18.70;99.90;;;;;;2106964;28;20073;-68
2021/07/24 02:02:30;;;;;;;9.45;8.25;;;18.70;99.90;;;;;;2098748;28;20499;-67
2021/07/24 02:03:55;;;;;;;15.98;8.50;;;18.70;99.90;;;;;;2098084;28;20032;-68
2021/07/24 02:04:58;;;;;;;8.73;7.35;;;18.70;99.90;;;;;;2101235;28;20481;-68
2021/07/24 02:06:00;;;;;;;9.38;8.45;;;18.70;99.90;;;;;;2106724;28;20032;-68
2021/07/24 02:07:00;;;;;;;11.88;9.13;;;18.70;99.90;;;;;;2112789;28;20015;-68
2021/07/24 02:08:04;;;;;;;13.35;8.38;;;18.70;99.90;;;;;;2107844;28;20021;-68
2021/07/24 02:09:05;;;;;;;9.80;8.80;;;18.70;99.90;;;;;;2107016;28;20032;-68
2021/07/24 02:10:06;;;;;;;8.90;7.97;;;18.70;99.90;;;;;;2106959;28;20117;-68
2021/07/24 02:11:06;;;;;;;8.95;7.68;;;18.70;99.90;;;;;;2111820;28;20020;-68
2021/07/24 02:12:08;;;;;;;10.32;8.25;;;18.70;99.90;;;;;;2115052;28;20023;-67
2021/07/24 02:13:12;;;;;;;9.27;8.38;;;18.70;99.90;;;;;;2114802;27;20345;-68
2021/07/24 02:14:13;;;;;;;9.40;8.27;;;18.70;99.90;;;;;;2107467;28;20055;-68
2021/07/24 02:15:14;;;;;;;8.70;7.80;;;18.70;99.90;;;;;;2106908;28;20085;-68
2021/07/24 02:16:14;;;;;;;8.13;7.38;;;18.70;99.90;;;;;;2106858;28;20020;-68
2021/07/24 02:17:15;;;;;;;9.43;7.65;;;18.70;99.90;;;;;;2107154;28;20471;-68
2021/07/24 02:18:17;;;;;;;12.80;8.18;;;18.70;99.90;;;;;;2106282;28;20031;-68
2021/07/24 02:19:18;;;;;;;10.68;7.80;;;18.70;99.90;;;;;;2106248;28;20020;-68
2021/07/24 02:20:21;;;;;;;9.00;7.53;;;18.70;99.90;;;;;;2106882;28;20043;-68
2021/07/24 02:21:22;;;;;;;12.40;8.98;;;18.70;99.90;;;;;;2106794;28;20467;-68
2021/07/24 02:22:23;;;;;;;11.05;8.27;;;18.70;99.90;;;;;;2105956;28;20397;-68
2021/07/24 02:23:23;;;;;;;10.55;8.60;;;18.70;99.90;;;;;;2105886;28;20348;-68
2021/07/24 02:24:24;;;;;;;12.07;8.13;;;18.70;99.90;;;;;;2113139;28;20034;-68
2021/07/24 02:25:25;;;;;;;9.68;8.07;;;18.70;99.90;;;;;;2115135;28;20103;-68
2021/07/24 02:26:25;;;;;;;9.68;8.65;;;18.70;99.90;;;;;;2115283;28;20034;-68
2021/07/24 02:27:26;;;;;;;11.77;8.55;;;18.70;99.90;;;;;;2114671;28;20475;-68
2021/07/24 02:28:27;;;;;;;10.05;8.93;;;18.70;99.90;;;;;;2114782;28;20063;-68
2021/07/24 02:29:27;;;;;;;10.40;9.23;;;18.70;99.90;;;;;;2115459;28;20026;-68
2021/07/24 02:30:28;;;;;;;10.02;8.52;;;18.70;99.90;;;;;;2115249;28;20028;-68
2021/07/24 02:31:28;;;;;;;12.50;8.32;;;18.70;99.90;;;;;;2113278;28;20023;-68
2021/07/24 02:32:29;;;;;;;11.77;8.18;;;18.70;99.90;;;;;;2106575;28;20052;-68
2021/07/24 02:33:29;;;;;;;9.13;7.82;;;18.70;99.90;;;;;;2106353;28;20386;-68
2021/07/24 02:34:30;;;;;;;8.95;7.43;;;18.70;99.90;;;;;;2106956;28;20116;-68
2021/07/24 02:35:30;;;;;;;9.77;8.57;;;18.70;99.90;;;;;;2106812;28;20088;-68
2021/07/24 02:36:31;;;;;;;11.70;8.27;;;18.70;99.90;;;;;;2106974;28;20039;-68
2021/07/24 02:37:32;;;;;;;12.52;9.13;;;18.70;99.90;;;;;;2106578;28;20467;-68
2021/07/24 02:38:33;;;;;;;11.73;9.27;;;18.60;99.90;;;;;;2110813;28;20024;-68
2021/07/24 02:39:33;;;;;;;10.82;8.85;;;18.60;99.90;;;;;;2109582;28;20099;-68
2021/07/24 02:40:34;;;;;;;10.27;8.82;;;18.60;99.90;;;;;;2106779;28;20461;-68
2021/07/24 02:41:34;;;;;;;10.80;8.20;;;18.60;99.90;;;;;;2106630;28;20031;-68
2021/07/24 02:42:35;;;;;;;10.45;8.45;;;18.60;99.90;;;;;;2106549;28;20025;-68
2021/07/24 02:43:36;;;;;;;9.68;8.68;;;18.60;99.90;;;;;;2106844;28;20016;-68
2021/07/24 02:44:36;;;;;;;8.45;7.55;;;18.60;99.90;;;;;;2106665;28;20093;-68
2021/07/24 02:45:37;;;;;;;10.57;8.30;;;18.60;99.90;;;;;;2106733;28;20028;-68
2021/07/24 02:46:37;;;;;;;10.20;8.93;;;18.60;99.90;;;;;;2106840;28;20020;-68
2021/07/24 02:47:38;;;;;;;10.20;9.15;;;18.60;99.90;;;;;;2106753;28;20055;-68
2021/07/24 02:48:38;;;;;;;9.00;8.10;;;18.60;99.90;;;;;;2106486;28;20031;-68
2021/07/24 02:49:39;;;;;;;10.90;8.52;;;18.60;99.90;;;;;;2106337;28;20028;-68
2021/07/24 02:50:40;;;;;;;11.18;9.98;;;18.50;99.90;;;;;;2107069;28;20069;-68
2021/07/24 02:51:40;;;;;;;10.95;9.15;;;18.50;99.90;;;;;;2106367;28;20024;-68
2021/07/24 02:52:41;;;;;;;10.68;8.70;;;18.50;99.90;;;;;;2106287;28;20024;-68
2021/07/24 02:53:42;;;;;;;9.23;8.32;;;18.50;99.90;;;;;;2115220;28;20020;-68
2021/07/24 02:54:42;;;;;;;9.60;8.70;;;18.60;99.90;;;;;;2115176;28;20110;-68
2021/07/24 02:55:43;;;;;;;10.07;9.05;;;18.50;99.90;;;;;;2114419;28;20031;-68
2021/07/24 02:56:43;;;;;;;10.68;9.45;;;18.50;99.90;;;;;;2106762;28;20075;-68
2021/07/24 02:57:44;;;;;;;8.80;8.00;;;18.50;99.90;;;;;;2106465;28;20475;-68
2021/07/24 02:58:44;;;;;;;10.50;9.50;;;18.50;99.90;;;;;;2106753;28;20151;-68
2021/07/24 02:59:45;;;;;;;10.45;9.38;;;18.40;99.90;;;;;;2106754;28;20072;-68
2021/07/24 03:00:45;;;;;;;10.90;8.80;;;18.40;99.90;;;;;;2106871;28;20047;-68
2021/07/24 03:01:46;;;;;;;10.20;8.45;;;18.40;99.90;;;;;;2106159;28;20051;-68
2021/07/24 03:02:46;;;;;;;10.93;9.82;;;18.40;99.90;;;;;;2107340;28;20403;-68
2021/07/24 03:03:47;;;;;;;9.57;8.57;;;18.40;99.90;;;;;;2106570;28;20056;-68
2021/07/24 03:04:47;;;;;;;13.82;9.27;;;18.40;99.90;;;;;;2106542;28;20475;-68
2021/07/24 03:05:49;;;;;;;9.88;8.88;;;18.40;99.90;;;;;;2106560;28;20617;-68
2021/07/24 03:06:50;;;;;;;13.65;9.98;;;18.50;99.90;;;;;;2106648;28;20371;-68
2021/07/24 03:07:50;;;;;;;12.77;9.32;;;18.40;99.90;;;;;;2106398;28;20044;-68
2021/07/24 03:08:51;;;;;;;11.00;8.70;;;18.40;99.90;;;;;;2106678;28;20030;-68
2021/07/24 03:09:51;;;;;;;13.23;9.18;;;18.40;99.90;;;;;;2106610;28;20028;-68
2021/07/24 03:10:52;;;;;;;11.90;8.60;;;18.40;99.90;;;;;;2106563;28;20060;-68
2021/07/24 03:11:52;;;;;;;9.88;8.90;;;18.40;99.90;;;;;;2106469;28;20051;-68
2021/07/24 03:12:53;;;;;;;9.70;8.55;;;18.30;99.90;;;;;;2105066;28;20031;-68
2021/07/24 03:13:53;;;;;;;10.13;8.95;;;18.30;99.90;;;;;;2106017;28;20043;-68
2021/07/24 03:14:54;;;;;;;11.65;7.95;;;18.30;99.90;;;;;;2106469;28;20692;-68
2021/07/24 03:15:55;;;;;;;10.60;8.48;;;18.30;99.90;;;;;;2106683;28;20493;-68
2021/07/24 03:16:55;;;;;;;16.90;10.25;;;18.30;99.90;;;;;;2106029;28;20074;-68
2021/07/24 03:17:56;;;;;;;13.45;9.65;;;18.30;99.90;;;;;;2106496;28;20077;-68
2021/07/24 03:18:56;;;;;;;14.48;9.93;;;18.30;99.90;;;;;;2106406;28;20098;-68
2021/07/24 03:19:58;;;;;;;11.27;8.98;;;18.30;99.90;;;;;;2106540;28;20050;-68
2021/07/24 03:20:58;;;;;;;9.60;8.70;;;18.30;99.90;;;;;;2106347;28;20012;-68
2021/07/24 03:21:59;;;;;;;10.38;9.35;;;18.30;99.90;;;;;;2106376;28;20107;-68
2021/07/24 03:23:00;;;;;;;10.95;9.65;;;18.30;99.90;;;;;;2105876;28;20028;-68
2021/07/24 03:24:01;;;;;;;17.23;8.40;;;18.30;99.90;;;;;;2110463;28;20630;-68
2021/07/24 03:25:02;;;;;;;9.75;7.78;;;18.30;99.90;;;;;;2111572;28;20468;-68
2021/07/24 03:26:07;;;;;;;10.30;9.30;;;18.30;99.90;;;;;;2113793;28;20114;-68
2021/07/24 03:27:08;;;;;;;9.43;8.38;;;18.30;99.90;;;;;;2114689;28;20032;-68
2021/07/24 03:28:09;;;;;;;11.32;8.70;;;18.20;99.90;;;;;;2114824;28;20020;-68
2021/07/24 03:29:10;;;;;;;9.75;8.80;;;18.30;99.90;;;;;;2114732;28;20053;-68
2021/07/24 03:30:11;;;;;;;10.23;9.20;;;18.20;99.90;;;;;;2114503;28;20537;-68
2021/07/24 03:31:12;;;;;;;9.88;8.88;;;18.20;99.90;;;;;;2114851;28;20024;-68
2021/07/24 03:32:12;;;;;;;9.20;8.32;;;18.20;99.90;;;;;;2106594;28;20034;-68
2021/07/24 03:33:13;;;;;;;10.70;8.23;;;18.20;99.90;;;;;;2105658;28;20145;-68
2021/07/24 03:34:13;;;;;;;12.75;9.63;;;18.20;99.90;;;;;;2113895;28;20036;-68
2021/07/24 03:35:14;;;;;;;13.38;9.45;;;18.20;99.90;;;;;;2108061;28;20032;-68
2021/07/24 03:36:14;;;;;;;13.15;9.48;;;18.20;99.90;;;;;;2098134;28;20024;-68
2021/07/24 03:37:15;;;;;;;11.70;7.45;;;18.20;99.90;;;;;;2104293;28;20028;-68
2021/07/24 03:38:16;;;;;;;8.93;7.97;;;18.20;99.90;;;;;;2106517;28;20043;-68
2021/07/24 03:39:16;;;;;;;13.35;9.82;;;18.20;99.90;;;;;;2106292;28;20024;-68
2021/07/24 03:40:17;;;;;;;10.27;8.75;;;18.20;99.90;;;;;;2106363;28;20053;-68
2021/07/24 03:41:17;;;;;;;9.18;7.82;;;18.20;99.90;;;;;;2106286;28;20024;-68
2021/07/24 03:42:18;;;;;;;11.13;9.38;;;18.20;99.90;;;;;;2106224;28;20032;-68
2021/07/24 03:43:19;;;;;;;11.65;9.27;;;18.20;99.90;;;;;;2106490;28;20106;-68
2021/07/24 03:44:19;;;;;;;10.90;9.50;;;18.20;99.90;;;;;;2106271;28;20032;-68
2021/07/24 03:45:20;;;;;;;9.45;8.45;;;18.20;99.90;;;;;;2112428;28;20080;-68
2021/07/24 03:46:21;;;;;;;9.65;8.65;;;18.20;99.90;;;;;;2114451;28;20069;-68
2021/07/24 03:47:22;;;;;;;10.90;9.32;;;18.20;99.90;;;;;;2114784;28;20393;-68
2021/07/24 03:48:23;;;;;;;10.05;8.40;;;18.20;99.90;;;;;;2107149;28;20020;-68
2021/07/24 03:49:23;;;;;;;10.63;9.32;;;18.10;99.90;;;;;;2105787;28;20558;-68
2021/07/24 03:50:24;;;;;;;13.40;8.88;;;18.10;99.90;;;;;;2106097;28;20065;-68
2021/07/24 03:51:24;;;;;;;11.30;8.82;;;18.10;99.90;;;;;;2106322;28;20600;-68
2021/07/24 03:52:25;;;;;;;11.93;9.10;;;18.10;99.90;;;;;;2106140;28;20020;-68
2021/07/24 03:53:26;;;;;;;11.82;9.30;;;18.10;99.90;;;;;;2104271;28;20050;-68
2021/07/24 03:54:27;;;;;;;12.05;9.10;;;18.10;99.90;;;;;;2106145;28;20028;-68
2021/07/24 03:55:28;;;;;;;8.90;7.97;;;18.10;99.90;;;;;;2108777;28;20478;-68
2021/07/24 03:56:29;;;;;;;10.50;9.45;;;18.10;99.90;;;;;;2110145;28;20078;-68
2021/07/24 03:57:29;;;;;;;13.45;9.52;;;18.10;99.90;;;;;;2114798;28;20098;-68
2021/07/24 03:58:30;;;;;;;8.98;8.07;;;18.10;99.90;;;;;;2106325;27;20028;-68
2021/07/24 03:59:31;;;;;;;9.55;8.63;;;18.00;99.90;;;;;;2106046;28;20034;-68
2021/07/24 04:00:40;;;;;;;12.27;9.73;;;18.00;99.90;;;;;;2106260;28;20042;-68
2021/07/24 04:01:43;;;;;;;13.05;9.18;;;18.00;99.90;;;;;;2105941;28;20020;-68
2021/07/24 04:02:44;;;;;;;10.63;9.40;;;18.10;99.90;;;;;;2108436;28;20035;-68
2021/07/24 04:03:44;;;;;;;11.88;9.32;;;18.10;99.90;;;;;;2104480;28;20103;-68
2021/07/24 04:04:47;;;;;;;10.10;9.10;;;18.10;99.90;;;;;;2108433;28;20024;-68
2021/07/24 04:05:48;;;;;;;9.77;8.75;;;18.00;99.90;;;;;;2109280;28;20031;-68
2021/07/24 04:06:50;;;;;;;10.95;8.38;;;18.00;99.90;;;;;;2110716;28;20022;-68
2021/07/24 04:07:51;;;;;;;8.90;8.10;;;18.00;99.90;;;;;;2108887;28;20102;-68
2021/07/24 04:08:54;;;;;;;10.07;9.07;;;18.00;99.90;;;;;;2106098;28;20052;-68
2021/07/24 04:09:55;;;;;;;12.68;8.75;;;18.00;99.90;;;;;;2097735;28;20052;-68
2021/07/24 04:10:56;;;;;;;10.70;9.60;;;18.00;99.90;;;;;;2101427;28;20020;-68
2021/07/24 04:11:57;;;;;;;10.27;8.95;;;18.00;99.90;;;;;;2105807;28;20139;-68
2021/07/24 04:12:57;;;;;;;11.77;9.38;;;18.00;99.90;;;;;;2105480;28;20020;-68
2021/07/24 04:13:58;;;;;;;9.77;8.45;;;18.00;99.90;;;;;;2106088;28;20095;-68
2021/07/24 04:14:59;;;;;;;9.48;8.48;;;18.00;99.90;;;;;;2105911;28;20028;-68
2021/07/24 04:16:00;;;;;;;11.85;9.18;;;18.00;99.90;;;;;;2106301;28;20483;-68
2021/07/24 04:17:01;;;;;;;10.27;9.27;;;18.00;99.90;;;;;;2106037;28;20376;-68
2021/07/24 04:18:02;;;;;;;10.65;8.98;;;18.00;99.90;;;;;;2106203;28;20028;-68
2021/07/24 04:19:04;;;;;;;12.15;9.43;;;18.00;99.90;;;;;;2106005;28;20371;-67
2021/07/24 04:20:05;;;;;;;11.43;9.23;;;18.00;99.90;;;;;;2106139;28;20034;-68
2021/07/24 04:21:06;;;;;;;10.45;9.32;;;18.00;99.90;;;;;;2105645;28;20077;-68
2021/07/24 04:22:06;;;;;;;13.23;9.10;;;18.00;99.90;;;;;;2105458;28;20157;-68
2021/07/24 04:23:07;;;;;;;9.73;8.55;;;18.00;99.90;;;;;;2104741;28;20490;-68
2021/07/24 04:24:08;;;;;;;10.00;8.93;;;18.00;99.90;;;;;;2110753;28;20028;-68
2021/07/24 04:25:09;;;;;;;12.93;8.63;;;18.00;99.90;;;;;;2114055;28;20035;-68
2021/07/24 04:26:09;;;;;;;10.05;9.05;;;18.00;99.90;;;;;;2114290;28;20060;-68
2021/07/24 04:27:10;;;;;;;9.80;8.73;;;18.00;99.90;;;;;;2114306;28;20027;-68
2021/07/24 04:28:10;;;;;;;11.00;9.02;;;18.00;99.90;;;;;;2114498;28;20360;-68
2021/07/24 04:29:11;;;;;;;10.07;8.93;;;18.00;99.90;;;;;;2114375;28;20023;-68
2021/07/24 04:30:11;;;;;;;12.55;9.63;;;18.00;99.90;;;;;;2113389;28;20467;-68
2021/07/24 04:31:14;;;;;;;16.35;9.82;;;18.00;99.90;;;;;;2114034;28;20418;-68
2021/07/24 04:32:14;;;;;;;9.40;8.45;;;18.00;99.90;;;;;;2105704;28;20429;-68
2021/07/24 04:33:15;;;;;;;13.50;8.70;;;18.00;99.90;;;;;;2105439;28;20074;-68
2021/07/24 04:34:16;;;;;;;12.32;9.60;;;18.10;99.90;;;;;;2114050;28;20020;-68
2021/07/24 04:35:17;;;;;;;11.48;9.05;;;18.00;99.90;;;;;;2107122;28;20016;-68
2021/07/24 04:36:17;;;;;;;10.75;9.00;;;18.00;99.90;;;;;;2097448;28;20033;-68
2021/07/24 04:37:18;;;;;;;10.18;8.23;;;18.10;99.90;;;;;;2104354;28;20115;-68
2021/07/24 04:38:18;;;;;;;10.50;8.77;;;18.10;99.90;;;;;;2105968;28;20032;-68
2021/07/24 04:39:19;;;;;;;9.40;8.45;;;18.10;99.90;;;;;;2106198;28;20107;-68
2021/07/24 04:40:19;;;;;;;11.10;9.00;;;18.20;99.90;;;;;;2105714;28;20523;-68
2021/07/24 04:41:21;;;;;;;9.32;8.43;;;18.20;99.90;;;;;;2105389;28;20028;-68
2021/07/24 04:42:22;;;;;;;12.75;9.13;;;18.30;99.90;;;;;;2105184;28;20059;-68
2021/07/24 04:43:22;;;;;;;11.10;9.55;;;18.30;99.90;;;;;;2105306;28;20044;-68
2021/07/24 04:44:23;;;;;;;20.70;9.25;;;18.40;99.90;;;;;;2105666;28;20028;-68
2021/07/24 04:45:23;;;;;;;11.25;9.50;;;18.40;99.90;;;;;;2112461;28;20020;-68
2021/07/24 04:46:24;;;;;;;12.32;9.20;;;18.40;99.90;;;;;;2114343;28;20027;-68
2021/07/24 04:47:25;;;;;;;9.55;8.57;;;18.40;99.90;;;;;;2114406;28;20023;-68
2021/07/24 04:48:25;;;;;;;12.05;9.52;;;18.40;99.90;;;;;;2108618;28;20493;-68
2021/07/24 04:49:26;;;;;;;10.50;9.35;;;18.40;99.90;;;;;;2105945;28;20035;-68
2021/07/24 04:50:27;;;;;;;10.40;8.15;;;18.40;99.90;;;;;;2105517;28;20020;-68
2021/07/24 04:51:29;;;;;;;11.18;9.90;;;18.40;99.90;;;;;;2108731;28;20475;-68
2021/07/24 04:52:29;;;;;;;13.13;8.88;;;18.40;99.90;;;;;;2113767;28;20034;-68
2021/07/24 04:53:32;;;;;;;10.35;9.32;;;18.40;99.90;;;;;;2114084;28;20050;-68
2021/07/24 04:54:33;;;;;;;9.57;8.57;;;18.40;99.90;;;;;;2114087;28;20413;-68
2021/07/24 04:55:36;;;;;;;11.27;8.55;;;18.40;99.90;;;;;;2114347;28;20050;-68
2021/07/24 04:56:38;;;;;;;11.50;8.82;;;18.50;99.90;;;;;;2105841;28;20055;-68
2021/07/24 04:57:39;;;;;;;10.00;9.00;;;18.50;99.90;;;;;;2106152;28;20036;-68
2021/07/24 04:58:39;;;;;;;12.77;9.00;;;18.50;99.90;;;;;;2105882;28;20028;-68
2021/07/24 04:59:47;;;;;;;10.20;9.02;;;18.50;99.90;;;;;;2105960;28;20122;-68
2021/07/24 05:00:49;;;;;;;11.35;8.90;;;18.60;99.90;;;;;;2105398;28;20028;-68
2021/07/24 05:01:49;;;;;;;10.07;9.00;;;18.60;99.90;;;;;;2103158;28;20028;-68
2021/07/24 05:02:50;;;;;;;11.55;8.77;;;18.60;99.90;;;;;;2108673;28;20051;-68
2021/07/24 05:03:50;;;;;;;8.45;7.60;;;18.70;99.90;;;;;;2114388;28;20107;-68
2021/07/24 05:04:52;;;;;;;9.32;8.27;;;18.70;99.90;;;;;;2113860;28;20077;-68
2021/07/24 05:05:53;;;;;;;10.80;8.35;;;18.70;99.90;;;;;;2114294;28;20470;-68
2021/07/24 05:06:55;;;;;;;10.40;7.57;;;18.80;99.90;;;;;;2113962;28;20028;-68
2021/07/24 05:07:56;;;;;;;9.35;8.30;;;18.90;99.90;;;;;;2114267;28;20115;-68
2021/07/24 05:08:58;;;;;;;9.05;7.85;;;19.00;99.90;;;;;;2114118;28;20018;-68
2021/07/24 05:09:58;;;;;;;9.60;8.68;;;19.00;99.90;;;;;;2114335;28;20008;-68
2021/07/24 05:10:59;;;;;;;10.77;8.43;;;19.10;99.90;;;;;;2110421;28;20047;-68
2021/07/24 05:11:59;;;;;;;10.68;8.60;;;19.20;99.90;;;;;;2114067;28;20581;-68
2021/07/24 05:13:00;;;;;;;8.95;8.05;;;19.30;99.90;;;;;;2113576;28;20382;-68
2021/07/24 05:14:01;;;;;;;9.02;8.10;;;19.30;99.90;;;;;;2106089;28;20012;-68
2021/07/24 05:15:02;;;;;;;10.07;8.25;;;19.40;99.90;;;;;;2104651;28;20028;-68
2021/07/24 05:16:03;;;;;;;9.85;8.60;;;19.50;99.90;;;;;;2105126;28;20032;-68
2021/07/24 05:17:08;;;;;;;10.07;8.95;;;19.60;99.90;;;;;;2105135;28;20801;-68
2021/07/24 05:18:08;;;;;;;9.57;8.00;;;19.60;99.90;;;;;;2113881;28;20054;-68
2021/07/24 05:19:09;;;;;;;12.07;8.43;;;19.70;99.90;;;;;;2114102;28;20471;-68
2021/07/24 05:20:10;;;;;;;11.18;8.70;;;19.80;99.90;;;;;;2114127;28;20088;-68